sensor_id;sensor_type;location;lat;lon;timestamp;P1;durP1;ratioP1;P2;durP2;ratioP2
25349;SDS011;13302;48.796;11.978;2023-04-06T00:00:45;2.80;;;2.67;;
25349;SDS011;13302;48.796;11.978;2023-04-06T00:03:34;3.13;;;2.93;;
25349;SDS011;13302;48.796;11.978;2023-04-06T00:06:21;3.10;;;2.80;;
25349;SDS011;13302;48.796;11.978;2023-04-06T00:09:08;3.17;;;2.97;;
25349;SDS011;13302;48.796;11.978;2023-04-06T00:11:55;3.40;;;3.17;;
25349;SDS011;13302;48.796;11.978;2023-04-06T00:14:43;3.90;;;3.60;;
25349;SDS011;13302;48.796;11.978;2023-04-06T00:17:30;3.60;;;3.30;;
25349;SDS011;13302;48.796;11.978;2023-04-06T00:20:17;3.60;;;3.30;;
25349;SDS011;13302;48.796;11.978;2023-04-06T00:23:04;3.27;;;3.07;;
25349;SDS011;13302;48.796;11.978;2023-04-06T00:25:51;3.10;;;2.90;;
25349;SDS011;13302;48.796;11.978;2023-04-06T00:28:38;3.10;;;2.90;;
25349;SDS011;13302;48.796;11.978;2023-04-06T00:31:25;3.17;;;2.97;;
25349;SDS011;13302;48.796;11.978;2023-04-06T00:34:13;3.13;;;2.93;;
25349;SDS011;13302;48.796;11.978;2023-04-06T00:37:01;4.33;;;3.40;;
25349;SDS011;13302;48.796;11.978;2023-04-06T00:39:48;3.13;;;2.90;;
25349;SDS011;13302;48.796;11.978;2023-04-06T00:42:35;3.20;;;2.90;;
25349;SDS011;13302;48.796;11.978;2023-04-06T00:45:22;3.10;;;2.90;;
25349;SDS011;13302;48.796;11.978;2023-04-06T00:48:09;3.40;;;3.13;;
25349;SDS011;13302;48.796;11.978;2023-04-06T00:50:57;4.00;;;3.70;;
25349;SDS011;13302;48.796;11.978;2023-04-06T00:53:44;3.50;;;3.20;;
25349;SDS011;13302;48.796;11.978;2023-04-06T00:56:32;3.53;;;3.23;;
25349;SDS011;13302;48.796;11.978;2023-04-06T00:59:20;3.20;;;3.00;;
25349;SDS011;13302;48.796;11.978;2023-04-06T01:02:08;3.00;;;2.80;;
25349;SDS011;13302;48.796;11.978;2023-04-06T01:05:01;3.80;;;3.30;;
25349;SDS011;13302;48.796;11.978;2023-04-06T01:07:57;3.40;;;3.10;;
25349;SDS011;13302;48.796;11.978;2023-04-06T01:10:47;3.40;;;3.20;;
25349;SDS011;13302;48.796;11.978;2023-04-06T01:13:47;4.10;;;2.93;;
25349;SDS011;13302;48.796;11.978;2023-04-06T01:16:43;2.90;;;2.70;;
25349;SDS011;13302;48.796;11.978;2023-04-06T01:19:36;3.20;;;3.00;;
25349;SDS011;13302;48.796;11.978;2023-04-06T01:22:23;3.37;;;3.13;;
25349;SDS011;13302;48.796;11.978;2023-04-06T01:25:19;2.70;;;2.60;;
25349;SDS011;13302;48.796;11.978;2023-04-06T01:28:18;2.93;;;2.73;;
25349;SDS011;13302;48.796;11.978;2023-04-06T01:31:16;3.00;;;2.80;;
25349;SDS011;13302;48.796;11.978;2023-04-06T01:34:08;2.90;;;2.70;;
25349;SDS011;13302;48.796;11.978;2023-04-06T01:36:55;2.90;;;2.70;;
25349;SDS011;13302;48.796;11.978;2023-04-06T01:39:46;2.90;;;2.70;;
25349;SDS011;13302;48.796;11.978;2023-04-06T01:42:43;2.77;;;2.57;;
25349;SDS011;13302;48.796;11.978;2023-04-06T01:45:34;3.13;;;2.93;;
25349;SDS011;13302;48.796;11.978;2023-04-06T01:48:32;3.23;;;3.03;;
25349;SDS011;13302;48.796;11.978;2023-04-06T01:51:24;3.13;;;2.93;;
25349;SDS011;13302;48.796;11.978;2023-04-06T01:54:17;3.13;;;2.80;;
25349;SDS011;13302;48.796;11.978;2023-04-06T01:57:24;3.33;;;3.03;;
25349;SDS011;13302;48.796;11.978;2023-04-06T02:00:18;2.50;;;2.30;;
25349;SDS011;13302;48.796;11.978;2023-04-06T02:03:11;2.63;;;2.50;;
25349;SDS011;13302;48.796;11.978;2023-04-06T02:05:58;3.13;;;2.93;;
25349;SDS011;13302;48.796;11.978;2023-04-06T02:08:52;3.30;;;3.00;;
25349;SDS011;13302;48.796;11.978;2023-04-06T02:11:39;3.40;;;3.17;;
25349;SDS011;13302;48.796;11.978;2023-04-06T02:14:26;2.80;;;2.60;;
25349;SDS011;13302;48.796;11.978;2023-04-06T02:17:17;2.73;;;2.63;;
25349;SDS011;13302;48.796;11.978;2023-04-06T02:20:05;3.43;;;3.00;;
25349;SDS011;13302;48.796;11.978;2023-04-06T02:22:52;3.10;;;2.90;;
25349;SDS011;13302;48.796;11.978;2023-04-06T02:25:39;3.13;;;2.87;;
25349;SDS011;13302;48.796;11.978;2023-04-06T02:28:28;2.70;;;2.50;;
25349;SDS011;13302;48.796;11.978;2023-04-06T02:31:15;2.80;;;2.70;;
25349;SDS011;13302;48.796;11.978;2023-04-06T02:34:04;2.90;;;2.70;;
25349;SDS011;13302;48.796;11.978;2023-04-06T02:36:52;3.00;;;2.80;;
25349;SDS011;13302;48.796;11.978;2023-04-06T02:39:39;3.20;;;2.97;;
25349;SDS011;13302;48.796;11.978;2023-04-06T02:42:28;3.40;;;3.10;;
25349;SDS011;13302;48.796;11.978;2023-04-06T02:45:16;3.37;;;3.00;;
25349;SDS011;13302;48.796;11.978;2023-04-06T02:48:06;2.97;;;2.77;;
25349;SDS011;13302;48.796;11.978;2023-04-06T02:50:53;3.10;;;2.90;;
25349;SDS011;13302;48.796;11.978;2023-04-06T02:53:41;3.13;;;2.93;;
25349;SDS011;13302;48.796;11.978;2023-04-06T02:56:28;3.60;;;3.30;;
25349;SDS011;13302;48.796;11.978;2023-04-06T02:59:15;4.03;;;2.97;;
25349;SDS011;13302;48.796;11.978;2023-04-06T03:02:09;3.50;;;3.30;;
25349;SDS011;13302;48.796;11.978;2023-04-06T03:04:56;3.53;;;3.20;;
25349;SDS011;13302;48.796;11.978;2023-04-06T03:07:50;3.30;;;3.10;;
25349;SDS011;13302;48.796;11.978;2023-04-06T03:10:45;3.20;;;3.00;;
25349;SDS011;13302;48.796;11.978;2023-04-06T03:13:35;3.60;;;3.30;;
25349;SDS011;13302;48.796;11.978;2023-04-06T03:16:25;2.80;;;2.60;;
25349;SDS011;13302;48.796;11.978;2023-04-06T03:19:12;3.47;;;3.27;;
25349;SDS011;13302;48.796;11.978;2023-04-06T03:21:59;2.93;;;2.73;;
25349;SDS011;13302;48.796;11.978;2023-04-06T03:24:47;3.40;;;3.20;;
25349;SDS011;13302;48.796;11.978;2023-04-06T03:27:34;3.63;;;3.33;;
25349;SDS011;13302;48.796;11.978;2023-04-06T03:30:22;4.00;;;3.40;;
25349;SDS011;13302;48.796;11.978;2023-04-06T03:33:09;4.00;;;3.70;;
25349;SDS011;13302;48.796;11.978;2023-04-06T03:36:06;3.70;;;3.20;;
25349;SDS011;13302;48.796;11.978;2023-04-06T03:38:58;3.10;;;2.90;;
25349;SDS011;13302;48.796;11.978;2023-04-06T03:41:45;3.00;;;2.80;;
25349;SDS011;13302;48.796;11.978;2023-04-06T03:44:52;3.27;;;3.07;;
25349;SDS011;13302;48.796;11.978;2023-04-06T03:47:39;3.37;;;3.00;;
25349;SDS011;13302;48.796;11.978;2023-04-06T03:50:27;3.77;;;3.27;;
25349;SDS011;13302;48.796;11.978;2023-04-06T03:53:14;3.50;;;3.20;;
25349;SDS011;13302;48.796;11.978;2023-04-06T03:56:01;3.57;;;3.33;;
25349;SDS011;13302;48.796;11.978;2023-04-06T03:58:50;3.73;;;3.43;;
25349;SDS011;13302;48.796;11.978;2023-04-06T04:01:40;3.03;;;2.83;;
25349;SDS011;13302;48.796;11.978;2023-04-06T04:04:27;3.57;;;3.37;;
25349;SDS011;13302;48.796;11.978;2023-04-06T04:07:14;4.30;;;3.90;;
25349;SDS011;13302;48.796;11.978;2023-04-06T04:10:01;3.63;;;3.33;;
25349;SDS011;13302;48.796;11.978;2023-04-06T04:12:49;3.37;;;3.17;;
25349;SDS011;13302;48.796;11.978;2023-04-06T04:15:36;3.60;;;3.30;;
25349;SDS011;13302;48.796;11.978;2023-04-06T04:18:23;3.83;;;3.53;;
25349;SDS011;13302;48.796;11.978;2023-04-06T04:21:10;3.73;;;3.43;;
25349;SDS011;13302;48.796;11.978;2023-04-06T04:23:57;3.90;;;3.60;;
25349;SDS011;13302;48.796;11.978;2023-04-06T04:26:44;3.83;;;3.53;;
25349;SDS011;13302;48.796;11.978;2023-04-06T04:29:32;4.30;;;3.90;;
25349;SDS011;13302;48.796;11.978;2023-04-06T04:32:23;4.10;;;3.70;;
25349;SDS011;13302;48.796;11.978;2023-04-06T04:35:16;4.20;;;3.80;;
25349;SDS011;13302;48.796;11.978;2023-04-06T04:38:03;4.57;;;3.17;;
25349;SDS011;13302;48.796;11.978;2023-04-06T04:40:52;3.90;;;3.60;;
25349;SDS011;13302;48.796;11.978;2023-04-06T04:43:41;4.00;;;3.63;;
25349;SDS011;13302;48.796;11.978;2023-04-06T04:46:28;4.20;;;3.80;;
25349;SDS011;13302;48.796;11.978;2023-04-06T04:49:15;4.13;;;3.83;;
25349;SDS011;13302;48.796;11.978;2023-04-06T04:52:03;4.47;;;4.07;;
25349;SDS011;13302;48.796;11.978;2023-04-06T04:55:00;4.10;;;3.80;;
25349;SDS011;13302;48.796;11.978;2023-04-06T04:57:50;4.33;;;3.93;;
25349;SDS011;13302;48.796;11.978;2023-04-06T05:00:42;4.60;;;4.20;;
25349;SDS011;13302;48.796;11.978;2023-04-06T05:03:29;4.33;;;3.93;;
25349;SDS011;13302;48.796;11.978;2023-04-06T05:06:21;4.90;;;4.50;;
25349;SDS011;13302;48.796;11.978;2023-04-06T05:09:08;5.10;;;4.07;;
25349;SDS011;13302;48.796;11.978;2023-04-06T05:11:56;4.67;;;4.17;;
25349;SDS011;13302;48.796;11.978;2023-04-06T05:14:43;4.20;;;3.80;;
25349;SDS011;13302;48.796;11.978;2023-04-06T05:17:34;4.53;;;4.07;;
25349;SDS011;13302;48.796;11.978;2023-04-06T05:20:22;4.00;;;3.67;;
25349;SDS011;13302;48.796;11.978;2023-04-06T05:23:10;4.23;;;3.93;;
25349;SDS011;13302;48.796;11.978;2023-04-06T05:25:58;4.70;;;4.37;;
25349;SDS011;13302;48.796;11.978;2023-04-06T05:28:45;5.47;;;4.90;;
25349;SDS011;13302;48.796;11.978;2023-04-06T05:31:33;8.50;;;4.83;;
25349;SDS011;13302;48.796;11.978;2023-04-06T05:34:20;4.67;;;4.27;;
25349;SDS011;13302;48.796;11.978;2023-04-06T05:37:09;5.43;;;4.00;;
25349;SDS011;13302;48.796;11.978;2023-04-06T05:39:56;4.53;;;4.13;;
25349;SDS011;13302;48.796;11.978;2023-04-06T05:42:43;5.47;;;4.97;;
25349;SDS011;13302;48.796;11.978;2023-04-06T05:45:30;4.90;;;4.37;;
25349;SDS011;13302;48.796;11.978;2023-04-06T05:48:18;4.67;;;4.27;;
25349;SDS011;13302;48.796;11.978;2023-04-06T05:51:05;6.00;;;5.40;;
25349;SDS011;13302;48.796;11.978;2023-04-06T05:54:02;6.83;;;5.63;;
25349;SDS011;13302;48.796;11.978;2023-04-06T05:56:50;6.83;;;6.13;;
25349;SDS011;13302;48.796;11.978;2023-04-06T05:59:37;6.90;;;6.20;;
25349;SDS011;13302;48.796;11.978;2023-04-06T06:02:25;7.20;;;6.47;;
25349;SDS011;13302;48.796;11.978;2023-04-06T06:05:13;6.93;;;6.23;;
25349;SDS011;13302;48.796;11.978;2023-04-06T06:08:01;6.13;;;5.50;;
25349;SDS011;13302;48.796;11.978;2023-04-06T06:10:49;6.77;;;6.07;;
25349;SDS011;13302;48.796;11.978;2023-04-06T06:13:40;5.70;;;5.20;;
25349;SDS011;13302;48.796;11.978;2023-04-06T06:16:27;5.40;;;4.90;;
25349;SDS011;13302;48.796;11.978;2023-04-06T06:19:15;5.37;;;4.90;;
25349;SDS011;13302;48.796;11.978;2023-04-06T06:22:03;5.87;;;4.37;;
25349;SDS011;13302;48.796;11.978;2023-04-06T06:24:54;4.67;;;4.27;;
25349;SDS011;13302;48.796;11.978;2023-04-06T06:27:43;4.50;;;4.10;;
25349;SDS011;13302;48.796;11.978;2023-04-06T06:30:30;5.10;;;4.60;;
25349;SDS011;13302;48.796;11.978;2023-04-06T06:33:18;5.13;;;4.63;;
25349;SDS011;13302;48.796;11.978;2023-04-06T06:36:05;5.67;;;4.40;;
25349;SDS011;13302;48.796;11.978;2023-04-06T06:38:53;4.73;;;4.33;;
25349;SDS011;13302;48.796;11.978;2023-04-06T06:41:40;5.07;;;4.57;;
25349;SDS011;13302;48.796;11.978;2023-04-06T06:44:28;5.20;;;4.63;;
25349;SDS011;13302;48.796;11.978;2023-04-06T06:47:15;4.77;;;4.37;;
25349;SDS011;13302;48.796;11.978;2023-04-06T06:50:03;4.40;;;4.00;;
25349;SDS011;13302;48.796;11.978;2023-04-06T06:52:51;6.00;;;4.67;;
25349;SDS011;13302;48.796;11.978;2023-04-06T06:55:39;5.43;;;4.37;;
25349;SDS011;13302;48.796;11.978;2023-04-06T06:58:26;5.07;;;4.67;;
25349;SDS011;13302;48.796;11.978;2023-04-06T07:01:13;5.53;;;4.93;;
25349;SDS011;13302;48.796;11.978;2023-04-06T07:04:01;5.10;;;4.70;;
25349;SDS011;13302;48.796;11.978;2023-04-06T07:06:48;5.27;;;4.77;;
25349;SDS011;13302;48.796;11.978;2023-04-06T07:09:36;6.17;;;5.20;;
25349;SDS011;13302;48.796;11.978;2023-04-06T07:12:23;5.00;;;4.60;;
25349;SDS011;13302;48.796;11.978;2023-04-06T07:15:10;5.97;;;4.50;;
25349;SDS011;13302;48.796;11.978;2023-04-06T07:17:57;5.10;;;4.70;;
25349;SDS011;13302;48.796;11.978;2023-04-06T07:20:46;5.23;;;4.40;;
25349;SDS011;13302;48.796;11.978;2023-04-06T07:23:34;5.27;;;4.60;;
25349;SDS011;13302;48.796;11.978;2023-04-06T07:26:21;5.70;;;4.33;;
25349;SDS011;13302;48.796;11.978;2023-04-06T07:29:08;4.80;;;4.40;;
25349;SDS011;13302;48.796;11.978;2023-04-06T07:31:55;5.80;;;5.27;;
25349;SDS011;13302;48.796;11.978;2023-04-06T07:34:42;5.73;;;4.70;;
25349;SDS011;13302;48.796;11.978;2023-04-06T07:37:32;5.27;;;4.77;;
25349;SDS011;13302;48.796;11.978;2023-04-06T07:40:19;5.53;;;5.03;;
25349;SDS011;13302;48.796;11.978;2023-04-06T07:43:06;4.90;;;4.40;;
25349;SDS011;13302;48.796;11.978;2023-04-06T07:45:55;5.47;;;4.83;;
25349;SDS011;13302;48.796;11.978;2023-04-06T07:48:43;5.73;;;5.23;;
25349;SDS011;13302;48.796;11.978;2023-04-06T07:51:30;5.40;;;4.90;;
25349;SDS011;13302;48.796;11.978;2023-04-06T07:54:18;5.67;;;4.80;;
25349;SDS011;13302;48.796;11.978;2023-04-06T07:57:05;5.23;;;4.73;;
25349;SDS011;13302;48.796;11.978;2023-04-06T07:59:52;5.07;;;4.67;;
25349;SDS011;13302;48.796;11.978;2023-04-06T08:02:39;5.23;;;4.73;;
25349;SDS011;13302;48.796;11.978;2023-04-06T08:05:26;5.47;;;5.03;;
25349;SDS011;13302;48.796;11.978;2023-04-06T08:08:13;5.57;;;5.03;;
25349;SDS011;13302;48.796;11.978;2023-04-06T08:11:01;5.07;;;4.77;;
25349;SDS011;13302;48.796;11.978;2023-04-06T08:13:49;5.00;;;4.60;;
25349;SDS011;13302;48.796;11.978;2023-04-06T08:16:36;5.40;;;4.57;;
25349;SDS011;13302;48.796;11.978;2023-04-06T08:19:23;5.83;;;5.07;;
25349;SDS011;13302;48.796;11.978;2023-04-06T08:22:10;5.30;;;4.80;;
25349;SDS011;13302;48.796;11.978;2023-04-06T08:24:57;4.80;;;4.40;;
25349;SDS011;13302;48.796;11.978;2023-04-06T08:27:44;5.63;;;5.13;;
25349;SDS011;13302;48.796;11.978;2023-04-06T08:30:31;5.67;;;5.23;;
25349;SDS011;13302;48.796;11.978;2023-04-06T08:33:18;5.07;;;4.67;;
25349;SDS011;13302;48.796;11.978;2023-04-06T08:36:06;5.50;;;4.93;;
25349;SDS011;13302;48.796;11.978;2023-04-06T08:38:57;4.80;;;4.30;;
25349;SDS011;13302;48.796;11.978;2023-04-06T08:41:45;5.40;;;4.90;;
25349;SDS011;13302;48.796;11.978;2023-04-06T08:44:32;4.63;;;4.33;;
25349;SDS011;13302;48.796;11.978;2023-04-06T08:47:19;4.47;;;4.13;;
25349;SDS011;13302;48.796;11.978;2023-04-06T08:50:10;5.33;;;4.60;;
25349;SDS011;13302;48.796;11.978;2023-04-06T08:53:00;4.70;;;4.30;;
25349;SDS011;13302;48.796;11.978;2023-04-06T08:55:47;5.10;;;4.70;;
25349;SDS011;13302;48.796;11.978;2023-04-06T08:58:35;4.73;;;4.33;;
25349;SDS011;13302;48.796;11.978;2023-04-06T09:01:26;4.53;;;4.13;;
25349;SDS011;13302;48.796;11.978;2023-04-06T09:04:14;4.27;;;3.87;;
25349;SDS011;13302;48.796;11.978;2023-04-06T09:07:02;4.20;;;3.90;;
25349;SDS011;13302;48.796;11.978;2023-04-06T09:09:49;5.90;;;4.27;;
25349;SDS011;13302;48.796;11.978;2023-04-06T09:12:38;4.90;;;4.50;;
25349;SDS011;13302;48.796;11.978;2023-04-06T09:15:25;4.07;;;3.77;;
25349;SDS011;13302;48.796;11.978;2023-04-06T09:18:12;4.10;;;3.83;;
25349;SDS011;13302;48.796;11.978;2023-04-06T09:21:03;4.23;;;3.83;;
25349;SDS011;13302;48.796;11.978;2023-04-06T09:24:03;4.23;;;3.80;;
25349;SDS011;13302;48.796;11.978;2023-04-06T09:26:51;3.97;;;3.67;;
25349;SDS011;13302;48.796;11.978;2023-04-06T09:29:38;3.97;;;3.67;;
25349;SDS011;13302;48.796;11.978;2023-04-06T09:32:25;4.03;;;3.63;;
25349;SDS011;13302;48.796;11.978;2023-04-06T09:35:12;4.63;;;4.00;;
25349;SDS011;13302;48.796;11.978;2023-04-06T09:38:10;4.10;;;3.77;;
25349;SDS011;13302;48.796;11.978;2023-04-06T09:40:57;4.67;;;4.27;;
25349;SDS011;13302;48.796;11.978;2023-04-06T09:43:47;4.30;;;4.00;;
25349;SDS011;13302;48.796;11.978;2023-04-06T09:46:35;4.40;;;4.00;;
25349;SDS011;13302;48.796;11.978;2023-04-06T09:49:44;4.10;;;3.80;;
25349;SDS011;13302;48.796;11.978;2023-04-06T09:52:38;4.70;;;4.30;;
25349;SDS011;13302;48.796;11.978;2023-04-06T09:55:30;4.10;;;3.80;;
25349;SDS011;13302;48.796;11.978;2023-04-06T09:58:21;4.77;;;4.30;;
25349;SDS011;13302;48.796;11.978;2023-04-06T10:01:14;4.10;;;3.80;;
25349;SDS011;13302;48.796;11.978;2023-04-06T10:04:09;4.60;;;4.30;;
25349;SDS011;13302;48.796;11.978;2023-04-06T10:07:13;5.10;;;4.60;;
25349;SDS011;13302;48.796;11.978;2023-04-06T10:10:02;4.90;;;4.50;;
25349;SDS011;13302;48.796;11.978;2023-04-06T10:12:49;4.80;;;4.40;;
25349;SDS011;13302;48.796;11.978;2023-04-06T10:15:37;4.83;;;4.43;;
25349;SDS011;13302;48.796;11.978;2023-04-06T10:18:24;5.37;;;4.87;;
25349;SDS011;13302;48.796;11.978;2023-04-06T10:21:12;5.20;;;4.70;;
25349;SDS011;13302;48.796;11.978;2023-04-06T10:24:08;5.23;;;4.83;;
25349;SDS011;13302;48.796;11.978;2023-04-06T10:27:00;4.47;;;4.17;;
25349;SDS011;13302;48.796;11.978;2023-04-06T10:29:48;5.10;;;4.70;;
25349;SDS011;13302;48.796;11.978;2023-04-06T10:32:37;6.00;;;5.27;;
25349;SDS011;13302;48.796;11.978;2023-04-06T10:35:35;7.13;;;5.40;;
25349;SDS011;13302;48.796;11.978;2023-04-06T10:38:33;5.37;;;4.87;;
25349;SDS011;13302;48.796;11.978;2023-04-06T10:41:32;5.07;;;4.60;;
25349;SDS011;13302;48.796;11.978;2023-04-06T10:44:21;5.00;;;4.70;;
25349;SDS011;13302;48.796;11.978;2023-04-06T10:47:17;5.03;;;4.73;;
25349;SDS011;13302;48.796;11.978;2023-04-06T10:50:05;5.13;;;4.63;;
25349;SDS011;13302;48.796;11.978;2023-04-06T10:52:59;5.60;;;5.13;;
25349;SDS011;13302;48.796;11.978;2023-04-06T10:55:48;5.10;;;4.70;;
25349;SDS011;13302;48.796;11.978;2023-04-06T10:58:36;4.83;;;4.43;;
25349;SDS011;13302;48.796;11.978;2023-04-06T11:01:24;5.37;;;4.70;;
25349;SDS011;13302;48.796;11.978;2023-04-06T11:04:17;5.33;;;4.93;;
25349;SDS011;13302;48.796;11.978;2023-04-06T11:07:05;4.60;;;4.30;;
25349;SDS011;13302;48.796;11.978;2023-04-06T11:09:52;5.47;;;4.77;;
25349;SDS011;13302;48.796;11.978;2023-04-06T11:12:59;4.80;;;4.40;;
25349;SDS011;13302;48.796;11.978;2023-04-06T11:15:46;4.90;;;4.50;;
25349;SDS011;13302;48.796;11.978;2023-04-06T11:18:35;4.63;;;4.27;;
25349;SDS011;13302;48.796;11.978;2023-04-06T11:21:42;5.30;;;4.80;;
25349;SDS011;13302;48.796;11.978;2023-04-06T11:24:33;5.60;;;5.10;;
25349;SDS011;13302;48.796;11.978;2023-04-06T11:27:20;5.27;;;4.93;;
25349;SDS011;13302;48.796;11.978;2023-04-06T11:30:08;5.63;;;5.00;;
25349;SDS011;13302;48.796;11.978;2023-04-06T11:33:00;5.33;;;4.83;;
25349;SDS011;13302;48.796;11.978;2023-04-06T11:35:48;5.20;;;4.80;;
25349;SDS011;13302;48.796;11.978;2023-04-06T11:38:38;4.40;;;4.10;;
25349;SDS011;13302;48.796;11.978;2023-04-06T11:41:26;4.80;;;4.43;;
25349;SDS011;13302;48.796;11.978;2023-04-06T11:44:31;4.67;;;4.37;;
25349;SDS011;13302;48.796;11.978;2023-04-06T11:47:19;4.87;;;4.47;;
25349;SDS011;13302;48.796;11.978;2023-04-06T11:50:10;4.57;;;4.17;;
25349;SDS011;13302;48.796;11.978;2023-04-06T11:53:01;5.47;;;4.97;;
25349;SDS011;13302;48.796;11.978;2023-04-06T11:55:49;4.83;;;4.53;;
25349;SDS011;13302;48.796;11.978;2023-04-06T11:58:36;5.13;;;4.63;;
25349;SDS011;13302;48.796;11.978;2023-04-06T12:01:24;4.53;;;4.23;;
25349;SDS011;13302;48.796;11.978;2023-04-06T12:04:11;4.93;;;4.53;;
25349;SDS011;13302;48.796;11.978;2023-04-06T12:06:58;4.30;;;4.10;;
25349;SDS011;13302;48.796;11.978;2023-04-06T12:09:45;5.53;;;4.50;;
25349;SDS011;13302;48.796;11.978;2023-04-06T12:12:32;4.90;;;4.50;;
25349;SDS011;13302;48.796;11.978;2023-04-06T12:15:19;5.47;;;4.90;;
25349;SDS011;13302;48.796;11.978;2023-04-06T12:18:06;4.87;;;4.37;;
25349;SDS011;13302;48.796;11.978;2023-04-06T12:20:53;4.60;;;4.20;;
25349;SDS011;13302;48.796;11.978;2023-04-06T12:23:41;4.53;;;4.23;;
25349;SDS011;13302;48.796;11.978;2023-04-06T12:26:28;4.53;;;4.23;;
25349;SDS011;13302;48.796;11.978;2023-04-06T12:29:15;5.77;;;4.70;;
25349;SDS011;13302;48.796;11.978;2023-04-06T12:32:02;4.90;;;4.50;;
25349;SDS011;13302;48.796;11.978;2023-04-06T12:34:49;4.77;;;4.47;;
25349;SDS011;13302;48.796;11.978;2023-04-06T12:37:38;5.47;;;4.30;;
25349;SDS011;13302;48.796;11.978;2023-04-06T12:40:26;4.80;;;4.50;;
25349;SDS011;13302;48.796;11.978;2023-04-06T12:43:13;5.30;;;4.90;;
25349;SDS011;13302;48.796;11.978;2023-04-06T12:46:00;4.70;;;4.33;;
25349;SDS011;13302;48.796;11.978;2023-04-06T12:48:47;4.73;;;4.40;;
25349;SDS011;13302;48.796;11.978;2023-04-06T12:51:34;4.50;;;4.20;;
25349;SDS011;13302;48.796;11.978;2023-04-06T12:54:21;5.03;;;4.63;;
25349;SDS011;13302;48.796;11.978;2023-04-06T12:57:08;5.47;;;5.07;;
25349;SDS011;13302;48.796;11.978;2023-04-06T12:59:56;7.13;;;4.73;;
25349;SDS011;13302;48.796;11.978;2023-04-06T13:02:44;4.93;;;4.53;;
25349;SDS011;13302;48.796;11.978;2023-04-06T13:05:34;4.53;;;4.23;;
25349;SDS011;13302;48.796;11.978;2023-04-06T13:08:21;4.67;;;4.33;;
25349;SDS011;13302;48.796;11.978;2023-04-06T13:11:08;4.53;;;4.17;;
25349;SDS011;13302;48.796;11.978;2023-04-06T13:13:55;5.13;;;4.67;;
25349;SDS011;13302;48.796;11.978;2023-04-06T13:16:42;4.33;;;4.03;;
25349;SDS011;13302;48.796;11.978;2023-04-06T13:19:29;4.27;;;3.87;;
25349;SDS011;13302;48.796;11.978;2023-04-06T13:22:17;5.40;;;4.90;;
25349;SDS011;13302;48.796;11.978;2023-04-06T13:25:04;4.80;;;4.40;;
25349;SDS011;13302;48.796;11.978;2023-04-06T13:27:51;3.90;;;3.70;;
25349;SDS011;13302;48.796;11.978;2023-04-06T13:30:38;4.20;;;3.83;;
25349;SDS011;13302;48.796;11.978;2023-04-06T13:33:26;4.27;;;3.97;;
25349;SDS011;13302;48.796;11.978;2023-04-06T13:36:13;3.70;;;3.40;;
25349;SDS011;13302;48.796;11.978;2023-04-06T13:39:03;4.20;;;3.93;;
25349;SDS011;13302;48.796;11.978;2023-04-06T13:41:52;3.60;;;3.40;;
25349;SDS011;13302;48.796;11.978;2023-04-06T13:44:40;4.23;;;3.93;;
25349;SDS011;13302;48.796;11.978;2023-04-06T13:47:27;4.60;;;4.30;;
25349;SDS011;13302;48.796;11.978;2023-04-06T13:50:14;4.40;;;4.10;;
25349;SDS011;13302;48.796;11.978;2023-04-06T13:53:01;4.57;;;4.17;;
25349;SDS011;13302;48.796;11.978;2023-04-06T13:55:52;4.50;;;4.10;;
25349;SDS011;13302;48.796;11.978;2023-04-06T13:58:40;5.20;;;4.67;;
25349;SDS011;13302;48.796;11.978;2023-04-06T14:01:27;5.23;;;4.73;;
25349;SDS011;13302;48.796;11.978;2023-04-06T14:04:14;4.77;;;4.37;;
25349;SDS011;13302;48.796;11.978;2023-04-06T14:07:02;4.20;;;3.90;;
25349;SDS011;13302;48.796;11.978;2023-04-06T14:09:50;5.53;;;4.83;;
25349;SDS011;13302;48.796;11.978;2023-04-06T14:12:36;5.20;;;4.80;;
25349;SDS011;13302;48.796;11.978;2023-04-06T14:15:23;5.30;;;4.80;;
25349;SDS011;13302;48.796;11.978;2023-04-06T14:18:11;5.07;;;4.67;;
25349;SDS011;13302;48.796;11.978;2023-04-06T14:20:58;5.10;;;4.60;;
25349;SDS011;13302;48.796;11.978;2023-04-06T14:23:45;4.63;;;4.33;;
25349;SDS011;13302;48.796;11.978;2023-04-06T14:26:33;5.17;;;4.53;;
25349;SDS011;13302;48.796;11.978;2023-04-06T14:29:20;4.93;;;4.47;;
25349;SDS011;13302;48.796;11.978;2023-04-06T14:32:07;4.60;;;4.20;;
25349;SDS011;13302;48.796;11.978;2023-04-06T14:34:54;4.43;;;4.03;;
25349;SDS011;13302;48.796;11.978;2023-04-06T14:37:41;4.67;;;4.27;;
25349;SDS011;13302;48.796;11.978;2023-04-06T14:40:28;4.80;;;4.50;;
25349;SDS011;13302;48.796;11.978;2023-04-06T14:43:15;4.70;;;4.40;;
25349;SDS011;13302;48.796;11.978;2023-04-06T14:46:03;5.33;;;4.93;;
25349;SDS011;13302;48.796;11.978;2023-04-06T14:48:50;4.27;;;3.97;;
25349;SDS011;13302;48.796;11.978;2023-04-06T14:51:37;4.67;;;4.37;;
25349;SDS011;13302;48.796;11.978;2023-04-06T14:54:24;4.83;;;4.43;;
25349;SDS011;13302;48.796;11.978;2023-04-06T14:57:11;4.93;;;4.53;;
25349;SDS011;13302;48.796;11.978;2023-04-06T14:59:58;4.97;;;4.60;;
25349;SDS011;13302;48.796;11.978;2023-04-06T15:02:46;4.77;;;4.37;;
25349;SDS011;13302;48.796;11.978;2023-04-06T15:05:33;5.03;;;4.60;;
25349;SDS011;13302;48.796;11.978;2023-04-06T15:08:21;5.10;;;4.70;;
25349;SDS011;13302;48.796;11.978;2023-04-06T15:11:09;4.53;;;4.23;;
25349;SDS011;13302;48.796;11.978;2023-04-06T15:13:57;4.50;;;4.20;;
25349;SDS011;13302;48.796;11.978;2023-04-06T15:16:44;4.23;;;3.87;;
25349;SDS011;13302;48.796;11.978;2023-04-06T15:19:31;4.17;;;3.87;;
25349;SDS011;13302;48.796;11.978;2023-04-06T15:22:18;4.97;;;4.57;;
25349;SDS011;13302;48.796;11.978;2023-04-06T15:25:05;4.37;;;4.07;;
25349;SDS011;13302;48.796;11.978;2023-04-06T15:27:53;8.03;;;3.90;;
25349;SDS011;13302;48.796;11.978;2023-04-06T15:30:40;4.73;;;4.23;;
25349;SDS011;13302;48.796;11.978;2023-04-06T15:33:27;4.07;;;3.77;;
25349;SDS011;13302;48.796;11.978;2023-04-06T15:36:27;4.63;;;4.23;;
25349;SDS011;13302;48.796;11.978;2023-04-06T15:39:16;4.30;;;4.00;;
25349;SDS011;13302;48.796;11.978;2023-04-06T15:42:03;4.40;;;4.00;;
25349;SDS011;13302;48.796;11.978;2023-04-06T15:44:50;3.63;;;3.43;;
25349;SDS011;13302;48.796;11.978;2023-04-06T15:47:37;4.10;;;3.70;;
25349;SDS011;13302;48.796;11.978;2023-04-06T15:50:25;4.53;;;4.13;;
25349;SDS011;13302;48.796;11.978;2023-04-06T15:53:13;4.47;;;4.00;;
25349;SDS011;13302;48.796;11.978;2023-04-06T15:56:01;4.17;;;3.87;;
25349;SDS011;13302;48.796;11.978;2023-04-06T15:58:49;4.30;;;4.00;;
25349;SDS011;13302;48.796;11.978;2023-04-06T16:01:36;4.37;;;3.83;;
25349;SDS011;13302;48.796;11.978;2023-04-06T16:04:23;3.73;;;3.53;;
25349;SDS011;13302;48.796;11.978;2023-04-06T16:07:11;3.87;;;3.67;;
25349;SDS011;13302;48.796;11.978;2023-04-06T16:09:58;5.00;;;4.60;;
25349;SDS011;13302;48.796;11.978;2023-04-06T16:12:45;4.70;;;4.40;;
25349;SDS011;13302;48.796;11.978;2023-04-06T16:15:32;5.03;;;4.63;;
25349;SDS011;13302;48.796;11.978;2023-04-06T16:18:19;4.70;;;4.30;;
25349;SDS011;13302;48.796;11.978;2023-04-06T16:21:06;4.57;;;4.17;;
25349;SDS011;13302;48.796;11.978;2023-04-06T16:23:54;5.23;;;4.80;;
25349;SDS011;13302;48.796;11.978;2023-04-06T16:26:45;4.73;;;4.40;;
25349;SDS011;13302;48.796;11.978;2023-04-06T16:29:34;4.60;;;4.20;;
25349;SDS011;13302;48.796;11.978;2023-04-06T16:32:21;4.23;;;3.90;;
25349;SDS011;13302;48.796;11.978;2023-04-06T16:35:08;5.33;;;4.93;;
25349;SDS011;13302;48.796;11.978;2023-04-06T16:37:55;4.33;;;3.93;;
25349;SDS011;13302;48.796;11.978;2023-04-06T16:40:42;3.97;;;3.67;;